Time;durP1;ratioP1;P1;durP2;ratioP2;P2;SDS_P1;SDS_P2;PMS_P1;PMS_P2;Temp;Humidity;BMP_temperature;BMP_pressure;BME280_temperature;BME280_humidity;BME280_pressure;Samples;Min_cycle;Max_cycle;Signal;HPM_P1;HPM_P2
2021/07/24 00:00:55;;;;;;;;;;;;;;;13.40;100.00;99328.69;1611191;89;21173;-72
2021/07/24 00:03:21;;;;;;;;;;;;;;;13.33;100.00;99330.87;1610930;89;20096;-72
2021/07/24 00:05:48;;;;;;;;;;;;;;;13.24;100.00;99333.84;1611179;89;20723;-72
2021/07/24 00:08:14;;;;;;;;;;;;;;;13.14;100.00;99333.89;1610955;88;20189;-73
2021/07/24 00:10:41;;;;;;;;;;;;;;;13.10;100.00;99336.31;1611346;88;20433;-72
2021/07/24 00:13:09;;;;;;;;;;;;;;;13.06;100.00;99339.31;1610880;88;20107;-73
2021/07/24 00:15:37;;;;;;;;;;;;;;;13.04;100.00;99339.58;1610836;88;20662;-73
2021/07/24 00:18:04;;;;;;;;;;;;;;;13.01;100.00;99336.09;1611003;89;20167;-72
2021/07/24 00:20:30;;;;;;;;;;;;;;;12.93;100.00;99335.84;1594637;89;20446;-72
2021/07/24 00:22:57;;;;;;;;;;;;;;;12.84;100.00;99334.27;1594765;90;20124;-72
2021/07/24 00:25:23;;;;;;;;;;;;;;;12.80;100.00;99332.64;1594888;89;22152;-72
2021/07/24 00:27:49;;;;;;;;;;;;;;;12.81;100.00;99334.28;1610972;87;20180;-72
2021/07/24 00:30:16;;;;;;;;;;;;;;;12.80;100.00;99337.23;1611320;87;20545;-72
2021/07/24 00:32:44;;;;;;;;;;;;;;;12.78;100.00;99338.04;1610837;87;20124;-72
2021/07/24 00:35:10;;;;;;;;;;;;;;;12.77;100.00;99336.44;1611373;87;20447;-72
2021/07/24 00:37:38;;;;;;;;;;;;;;;12.75;100.00;99338.05;1610912;87;21133;-72
2021/07/24 00:40:05;;;;;;;;;;;;;;;12.72;100.00;99338.60;1611217;87;20423;-72
2021/07/24 00:42:33;;;;;;;;;;;;;;;12.71;100.00;99336.17;1611054;87;20129;-72
2021/07/24 00:45:01;;;;;;;;;;;;;;;12.70;100.00;99337.27;1611161;88;20455;-71
2021/07/24 00:47:30;;;;;;;;;;;;;;;12.70;100.00;99338.61;1611113;87;20100;-71
2021/07/24 00:50:00;;;;;;;;;;;;;;;12.72;100.00;99336.45;1611696;87;21216;-73
2021/07/24 00:52:27;;;;;;;;;;;;;;;12.71;100.00;99341.02;1611082;87;20092;-72
2021/07/24 00:55:06;;;;;;;;;;;;;;;12.67;100.00;99340.51;1611334;87;20176;-72
2021/07/24 00:57:37;;;;;;;;;;;;;;;12.58;100.00;99331.62;1692335;85;20145;-72
2021/07/24 01:00:05;;;;;;;;;;;;;;;12.53;100.00;99337.02;1729225;81;20169;-72
2021/07/24 01:02:37;;;;;;;;;;;;;;;12.47;100.00;99331.91;1757937;80;20109;-72
2021/07/24 01:05:05;;;;;;;;;;;;;;;12.43;100.00;99334.34;1758353;80;20409;-72
2021/07/24 01:07:34;;;;;;;;;;;;;;;12.38;100.00;99339.19;1757920;80;20162;-72
2021/07/24 01:10:03;;;;;;;;;;;;;;;12.36;100.00;99333.81;1758083;81;20129;-71
2021/07/24 01:12:33;;;;;;;;;;;;;;;12.39;100.00;99334.61;1758111;80;20125;-72
2021/07/24 01:15:04;;;;;;;;;;;;;;;12.41;100.00;99332.45;1757883;81;21119;-71
2021/07/24 01:17:32;;;;;;;;;;;;;;;12.40;100.00;99330.85;1757885;81;20460;-72
2021/07/24 01:20:03;;;;;;;;;;;;;;;12.34;100.00;99326.54;1757834;81;20124;-72
2021/07/24 01:22:31;;;;;;;;;;;;;;;12.28;100.00;99333.02;1757403;81;20434;-71
2021/07/24 01:25:00;;;;;;;;;;;;;;;12.24;100.00;99324.66;1757872;81;20125;-72
2021/07/24 01:27:28;;;;;;;;;;;;;;;12.19;100.00;99332.20;1757882;80;21099;-72
2021/07/24 01:29:56;;;;;;;;;;;;;;;12.13;100.00;99331.94;1758413;81;20160;-72
2021/07/24 01:32:25;;;;;;;;;;;;;;;12.09;100.00;99333.55;1756760;80;20157;-71
2021/07/24 01:34:53;;;;;;;;;;;;;;;12.05;100.00;99328.42;1758159;81;20129;-71
2021/07/24 01:37:22;;;;;;;;;;;;;;;12.01;100.00;99322.78;1757756;81;20133;-72
2021/07/24 01:39:49;;;;;;;;;;;;;;;11.96;100.00;99327.36;1758296;81;21136;-71
2021/07/24 01:42:18;;;;;;;;;;;;;;;11.94;100.00;99325.48;1757751;81;20144;-72
2021/07/24 01:44:48;;;;;;;;;;;;;;;11.96;100.00;99322.79;1757829;80;20125;-71
2021/07/24 01:47:15;;;;;;;;;;;;;;;11.97;100.00;99317.66;1757942;81;20184;-71
2021/07/24 01:52:48;;;;;;;;;;;;;;;12.00;100.00;99315.80;1757806;81;21136;-72
2021/07/24 01:55:24;;;;;;;;;;;;;;;11.94;100.00;99312.83;1757993;81;20605;-70
2021/07/24 01:57:55;;;;;;;;;;;;;;;11.90;100.00;99318.47;1783546;80;20096;-70
2021/07/24 02:00:25;;;;;;;;;;;;;;;11.86;100.00;99324.64;1783867;79;20080;-71
2021/07/24 02:02:54;;;;;;;;;;;;;;;11.82;100.00;99328.39;1782706;80;20096;-70
2021/07/24 02:05:40;;;;;;;;;;;;;;;11.78;100.00;99322.75;1779918;80;21276;-69
2021/07/24 02:08:06;;;;;;;;;;;;;;;11.81;100.00;99317.38;1783462;80;20120;-70
2021/07/24 02:10:33;;;;;;;;;;;;;;;11.79;100.00;99324.90;1783761;80;20100;-70
2021/07/24 02:13:02;;;;;;;;;;;;;;;11.83;100.00;99328.64;1783754;80;20096;-70
2021/07/24 02:15:32;;;;;;;;;;;;;;;11.87;100.00;99324.39;1783841;79;20112;-70
2021/07/24 02:18:00;;;;;;;;;;;;;;;11.90;100.00;99328.42;1779742;80;21060;-69
2021/07/24 02:20:27;;;;;;;;;;;;;;;11.87;100.00;99327.62;1783986;80;20120;-70
2021/07/24 02:22:55;;;;;;;;;;;;;;;11.86;100.00;99329.48;1783642;79;20127;-69
2021/07/24 02:25:23;;;;;;;;;;;;;;;11.87;100.00;99328.97;1783591;80;20096;-69
2021/07/24 02:27:50;;;;;;;;;;;;;;;11.89;100.00;99330.86;1755252;80;20115;-70
2021/07/24 02:30:18;;;;;;;;;;;;;;;11.89;100.00;99333.55;1784138;80;21818;-69
2021/07/24 02:32:45;;;;;;;;;;;;;;;11.88;100.00;99330.56;1783738;80;20080;-69
2021/07/24 02:35:14;;;;;;;;;;;;;;;11.85;100.00;99331.08;1783974;80;20068;-69
2021/07/24 02:37:43;;;;;;;;;;;;;;;11.82;100.00;99334.31;1779753;80;20782;-70
2021/07/24 02:40:09;;;;;;;;;;;;;;;11.79;100.00;99332.42;1784069;80;20431;-71
2021/07/24 02:42:38;;;;;;;;;;;;;;;11.80;100.00;99330.53;1782387;80;21098;-71
2021/07/24 02:45:06;;;;;;;;;;;;;;;11.85;100.00;99332.42;1783908;80;20160;-71
2021/07/24 02:47:32;;;;;;;;;;;;;;;11.93;100.00;99339.98;1755252;80;20112;-71
2021/07/24 02:49:59;;;;;;;;;;;;;;;12.01;100.00;99338.13;1784027;80;20120;-70
2021/07/24 02:52:26;;;;;;;;;;;;;;;12.15;100.00;99334.34;1783762;80;20096;-71
2021/07/24 02:54:55;;;;;;;;;;;;;;;12.26;100.00;99338.66;1783788;80;21167;-72
2021/07/24 02:57:22;;;;;;;;;;;;;;;12.37;100.00;99343.48;1783668;80;20313;-71
2021/07/24 02:59:50;;;;;;;;;;;;;;;12.42;100.00;99339.44;1783962;79;20389;-71
2021/07/24 03:02:18;;;;;;;;;;;;;;;12.48;100.00;99342.41;1783986;79;20096;-71
2021/07/24 03:04:45;;;;;;;;;;;;;;;12.52;100.00;99341.31;1783748;79;36145;-71
2021/07/24 03:07:12;;;;;;;;;;;;;;;12.61;100.00;99351.80;1783582;80;21086;-70
2021/07/24 03:09:38;;;;;;;;;;;;;;;12.73;100.00;99344.24;1783730;79;20088;-71
2021/07/24 03:12:05;;;;;;;;;;;;;;;12.84;100.00;99345.05;1783826;79;20076;-70
2021/07/24 03:14:32;;;;;;;;;;;;;;;12.97;100.00;99346.34;1783597;79;20072;-71
2021/07/24 03:16:58;;;;;;;;;;;;;;;13.11;100.00;99345.23;1783701;80;20179;-70
2021/07/24 03:19:25;;;;;;;;;;;;;;;13.24;100.00;99345.42;1783527;80;21145;-71
2021/07/24 03:21:52;;;;;;;;;;;;;;;13.39;100.00;99347.27;1783911;80;20086;-71
2021/07/24 03:24:18;;;;;;;;;;;;;;;13.56;100.00;99344.77;1783622;80;20092;-71
2021/07/24 03:26:45;;;;;;;;;;;;;;;13.72;100.00;99342.26;1783641;80;20164;-71
2021/07/24 03:29:12;;;;;;;;;;;;;;;13.90;100.00;99356.97;1779745;80;20117;-71
2021/07/24 03:31:38;;;;;;;;;;;;;;;14.09;100.00;99350.36;1784073;80;21111;-71
2021/07/24 03:34:04;;;;;;;;;;;;;;;14.25;100.00;99343.73;1783778;79;20108;-71
2021/07/24 03:36:31;;;;;;;;;;;;;;;14.44;100.00;99356.55;1783666;80;20092;-71
2021/07/24 03:38:57;;;;;;;;;;;;;;;14.65;100.00;99359.88;1783706;80;20178;-71
2021/07/24 03:41:24;;;;;;;;;;;;;;;14.79;100.00;99356.77;1780098;80;20112;-72
2021/07/24 03:43:50;;;;;;;;;;;;;;;14.98;100.00;99363.05;1783596;79;21123;-72
2021/07/24 03:46:19;;;;;;;;;;;;;;;15.11;100.00;99365.59;1783915;79;20139;-72
2021/07/24 03:48:46;;;;;;;;;;;;;;;15.25;100.00;99363.02;1783838;79;20135;-72
2021/07/24 03:51:13;;;;;;;;;;;;;;;15.39;100.00;99363.13;1783867;79;20112;-72
2021/07/24 03:53:40;;;;;;;;;;;;;;;15.54;100.00;99368.87;1783600;80;20463;-72
2021/07/24 03:56:16;;;;;;;;;;;;;;;15.67;100.00;99367.34;1783434;80;21131;-72
2021/07/24 03:58:47;;;;;;;;;;;;;;;15.86;100.00;99362.77;1783791;80;20112;-72
2021/07/24 04:01:16;;;;;;;;;;;;;;;16.07;100.00;99364.08;1783997;80;20144;-71
2021/07/24 04:03:43;;;;;;;;;;;;;;;16.25;100.00;99368.41;1783664;80;20072;-72
2021/07/24 04:06:21;;;;;;;;;;;;;;;16.46;100.00;99368.86;1783680;80;20116;-72
2021/07/24 04:08:50;;;;;;;;;;;;;;;16.61;100.00;99368.61;1782918;80;21504;-71
2021/07/24 04:11:19;;;;;;;;;;;;;;;16.84;100.00;99366.86;1782196;80;20069;-72
2021/07/24 04:13:47;;;;;;;;;;;;;;;16.93;100.00;99368.33;1783684;80;20195;-72
2021/07/24 04:16:14;;;;;;;;;;;;;;;17.00;100.00;99372.81;1783835;80;20084;-72
2021/07/24 04:18:42;;;;;;;;;;;;;;;17.09;100.00;99371.54;1782432;79;20092;-72
2021/07/24 04:21:13;;;;;;;;;;;;;;;17.25;100.00;99374.20;1784029;79;21768;-72
2021/07/24 04:23:40;;;;;;;;;;;;;;;17.41;100.00;99371.17;1782789;79;20127;-73
2021/07/24 04:26:09;;;;;;;;;;;;;;;17.53;100.00;99370.90;1783807;80;20076;-73
2021/07/24 04:28:38;;;;;;;;;;;;;;;17.50;100.00;99372.88;1783848;80;20478;-73
2021/07/24 04:31:04;;;;;;;;;;;;;;;17.49;100.00;99377.23;1784096;80;20419;-73
2021/07/24 04:33:32;;;;;;;;;;;;;;;17.59;100.00;99367.55;1783760;80;21133;-74
2021/07/24 04:36:00;;;;;;;;;;;;;;;17.76;100.00;99372.30;1783117;80;20089;-73
2021/07/24 04:38:26;;;;;;;;;;;;;;;17.89;100.00;99372.06;1783709;79;20187;-73
2021/07/24 04:40:53;;;;;;;;;;;;;;;18.02;100.00;99374.48;1783663;80;20151;-73
2021/07/24 04:43:19;;;;;;;;;;;;;;;18.26;100.00;99376.91;1783678;80;20169;-73
2021/07/24 04:45:46;;;;;;;;;;;;;;;18.41;100.00;99377.31;1783948;80;21716;-72
2021/07/24 04:48:12;;;;;;;;;;;;;;;18.62;100.00;99382.25;1783327;80;20255;-73
2021/07/24 04:50:46;;;;;;;;;;;;;;;18.77;100.00;99384.60;1783387;80;20216;-74
2021/07/24 04:53:13;;;;;;;;;;;;;;;18.78;100.00;99382.11;1783586;79;20080;-73
2021/07/24 04:55:39;;;;;;;;;;;;;;;18.90;100.00;99380.73;1783551;80;20415;-74
2021/07/24 04:58:06;;;;;;;;;;;;;;;19.01;100.00;99384.23;1783569;79;21075;-73
2021/07/24 05:00:44;;;;;;;;;;;;;;;19.12;100.00;99381.23;1783377;80;20093;-73
2021/07/24 05:03:12;;;;;;;;;;;;;;;19.26;100.00;99384.08;1779586;80;20119;-74
2021/07/24 05:05:38;;;;;;;;;;;;;;;19.40;100.00;99386.69;1783360;80;20124;-73
2021/07/24 05:08:07;;;;;;;;;;;;;;;19.56;100.00;99380.22;1783489;79;20166;-73
2021/07/24 05:10:35;;;;;;;;;;;;;;;19.72;100.00;99385.23;1783641;79;21241;-73
2021/07/24 05:13:03;;;;;;;;;;;;;;;19.91;100.00;99385.73;1782896;79;20069;-73
2021/07/24 05:15:29;;;;;;;;;;;;;;;20.02;100.00;99382.15;1783265;80;20424;-73
2021/07/24 05:17:57;;;;;;;;;;;;;;;20.11;100.00;99385.11;1783157;80;20431;-73
2021/07/24 05:20:25;;;;;;;;;;;;;;;20.19;100.00;99388.95;1783031;80;20092;-74
2021/07/24 05:22:53;;;;;;;;;;;;;;;20.24;100.00;99389.35;1783854;79;21172;-71
2021/07/24 05:25:19;;;;;;;;;;;;;;;20.37;100.00;99391.66;1783716;80;20100;-71
2021/07/24 05:27:46;;;;;;;;;;;;;;;20.46;100.00;99382.34;1784102;79;20490;-72
2021/07/24 05:30:13;;;;;;;;;;;;;;;20.68;100.00;99385.45;1783592;79;20096;-73
2021/07/24 05:32:43;;;;;;;;;;;;;;;21.06;100.00;99383.30;1784023;79;20116;-71
2021/07/24 05:35:09;;;;;;;;;;;;;;;;;;1783951;80;21114;-72
2021/07/24 05:37:37;;;;;;;;;;;;;;;21.68;100.00;99385.16;1783285;79;20084;-71
2021/07/24 05:40:05;;;;;;;;;;;;;;;21.76;100.00;99392.51;1783549;80;20112;-72
2021/07/24 05:42:31;;;;;;;;;;;;;;;21.62;100.00;99388.66;1783875;80;20180;-72
2021/07/24 05:44:58;;;;;;;;;;;;;;;21.84;100.00;99391.06;1783737;79;20186;-72
2021/07/24 05:47:24;;;;;;;;;;;;;;;22.01;100.00;99387.40;1783637;80;21551;-71
2021/07/24 05:49:51;;;;;;;;;;;;;;;22.21;100.00;99387.75;1782891;79;20478;-70
2021/07/24 05:52:18;;;;;;;;;;;;;;;22.22;100.00;99397.53;1755126;80;20199;-71
2021/07/24 05:54:45;;;;;;;;;;;;;;;22.30;100.00;99389.84;1783270;80;20144;-72
2021/07/24 05:57:15;;;;;;;;;;;;;;;22.46;100.00;99393.55;1780286;79;20164;-71
2021/07/24 05:59:43;;;;;;;;;;;;;;;22.49;100.00;99393.45;1769359;80;21206;-72
2021/07/24 06:02:15;;;;;;;;;;;;;;;22.51;100.00;99393.89;1768892;81;20412;-71
2021/07/24 06:04:44;;;;;;;;;;;;;;;22.71;99.34;99399.64;1768690;80;20101;-71
2021/07/24 06:07:11;;;;;;;;;;;;;;;22.98;96.89;99398.23;1769426;81;20138;-71
2021/07/24 06:09:38;;;;;;;;;;;;;;;23.22;95.60;99398.83;1769511;81;20156;-71
2021/07/24 06:12:06;;;;;;;;;;;;;;;23.29;94.01;99397.69;1769496;80;21196;-70
2021/07/24 06:14:34;;;;;;;;;;;;;;;23.44;93.86;99401.67;1750106;81;20175;-72
2021/07/24 06:17:02;;;;;;;;;;;;;;;23.56;90.62;99404.41;1768660;80;20153;-71
2021/07/24 06:19:28;;;;;;;;;;;;;;;23.79;88.60;99405.30;1769570;80;20431;-72
2021/07/24 06:21:55;;;;;;;;;;;;;;;23.95;85.38;99407.56;1769363;80;20416;-70
2021/07/24 06:24:24;;;;;;;;;;;;;;;24.01;82.05;99404.81;1769275;81;21102;-71
2021/07/24 06:26:51;;;;;;;;;;;;;;;23.99;83.85;99403.57;1768600;81;20171;-71
2021/07/24 06:29:17;;;;;;;;;;;;;;;24.16;82.88;99410.93;1767863;80;20235;-73
2021/07/24 06:31:44;;;;;;;;;;;;;;;24.24;78.73;99408.39;1770074;80;20093;-72
2021/07/24 06:34:10;;;;;;;;;;;;;;;24.24;77.78;99402.91;1770245;81;20169;-71
2021/07/24 06:36:39;;;;;;;;;;;;;;;23.95;78.63;99407.56;1769848;80;22030;-72
2021/07/24 06:39:08;;;;;;;;;;;;;;;23.98;79.41;99407.44;1769593;80;20109;-71
2021/07/24 06:41:40;;;;;;;;;;;;;;;24.03;75.79;99414.05;1769824;80;20117;-72
2021/07/24 06:44:07;;;;;;;;;;;;;;;24.24;75.09;99412.50;1725299;81;20200;-71
2021/07/24 06:46:34;;;;;;;;;;;;;;;24.53;71.00;99418.24;1769146;80;20093;-72
2021/07/24 06:49:01;;;;;;;;;;;;;;;24.90;71.12;99412.55;1769298;81;20841;-72
2021/07/24 06:51:28;;;;;;;;;;;;;;;25.06;66.55;99415.28;1769103;80;20160;-71
2021/07/24 06:53:54;;;;;;;;;;;;;;;25.39;66.27;99412.20;1769493;80;20097;-72
2021/07/24 06:56:21;;;;;;;;;;;;;;;25.69;63.88;99411.12;1768780;80;20109;-72
2021/07/24 06:58:48;;;;;;;;;;;;;;;25.30;63.04;99417.08;1768320;80;20192;-71
2021/07/24 07:01:19;;;;;;;;;;;;;;;25.07;64.51;99414.94;1768602;81;21088;-73
2021/07/24 07:03:45;;;;;;;;;;;;;;;24.97;64.79;99420.38;1769430;80;20101;-70
2021/07/24 07:06:13;;;;;;;;;;;;;;;24.95;65.00;99421.30;1769381;80;20169;-70
2021/07/24 07:08:41;;;;;;;;;;;;;;;24.93;62.54;99418.11;1769227;80;20172;-71
2021/07/24 07:11:08;;;;;;;;;;;;;;;25.27;65.59;99411.72;1770031;81;20112;-72
2021/07/24 07:13:36;;;;;;;;;;;;;;;25.55;61.77;99415.73;1768760;80;21140;-69
2021/07/24 07:16:04;;;;;;;;;;;;;;;25.77;60.11;99423.06;1769043;80;20381;-71
2021/07/24 07:18:38;;;;;;;;;;;;;;;25.71;60.79;99418.44;1769635;80;20125;-71
2021/07/24 07:21:07;;;;;;;;;;;;;;;25.53;59.71;99418.59;1769488;80;20133;-71
2021/07/24 07:23:35;;;;;;;;;;;;;;;25.40;61.06;99414.58;1768929;80;20155;-72
2021/07/24 07:26:03;;;;;;;;;;;;;;;25.11;61.26;99409.52;1749310;81;21577;-73
2021/07/24 07:28:30;;;;;;;;;;;;;;;25.26;61.00;99412.89;1769428;80;20109;-71
2021/07/24 07:30:58;;;;;;;;;;;;;;;25.68;62.09;99414.25;1750181;81;20192;-72
2021/07/24 07:33:24;;;;;;;;;;;;;;;25.91;61.19;99408.88;1769740;81;20081;-73
2021/07/24 07:35:53;;;;;;;;;;;;;;;25.70;61.53;99416.03;1769178;80;20167;-71
2021/07/24 07:38:20;;;;;;;;;;;;;;;26.06;58.24;99414.88;1769347;80;21432;-71
2021/07/24 07:40:47;;;;;;;;;;;;;;;26.28;56.00;99416.91;1773549;79;20226;-71
2021/07/24 07:43:13;;;;;;;;;;;;;;;26.19;55.47;99418.28;1769722;80;20096;-73
2021/07/24 07:45:40;;;;;;;;;;;;;;;26.30;55.44;99418.72;1769211;80;20100;-72
2021/07/24 07:48:07;;;;;;;;;;;;;;;25.83;54.68;99422.44;1769888;80;20085;-72
2021/07/24 07:50:41;;;;;;;;;;;;;;;25.23;57.35;99413.58;1768772;80;21534;-74
2021/07/24 07:53:07;;;;;;;;;;;;;;;24.92;59.66;99422.59;1769485;80;20113;-72
2021/07/24 07:55:36;;;;;;;;;;;;;;;24.88;59.56;99421.70;1769282;80;20144;-71
2021/07/24 07:58:14;;;;;;;;;;;;;;;25.19;60.46;99417.62;1770331;80;20626;-72
2021/07/24 08:00:51;;;;;;;;;;;;;;;25.36;55.89;99415.67;1774827;80;20248;-71
2021/07/24 08:03:28;;;;;;;;;;;;;;;25.68;55.84;99428.77;1773996;80;21151;-72
2021/07/24 08:05:54;;;;;;;;;;;;;;;26.17;56.17;99427.50;1773927;80;20112;-71
2021/07/24 08:08:22;;;;;;;;;;;;;;;26.65;54.41;99430.81;1774536;80;20135;-72
2021/07/24 08:10:50;;;;;;;;;;;;;;;26.72;52.07;99427.61;1774504;80;20231;-70
2021/07/24 08:13:17;;;;;;;;;;;;;;;26.78;51.90;99430.06;1774707;80;20148;-71
2021/07/24 08:15:45;;;;;;;;;;;;;;;26.54;51.12;99429.25;1774756;80;21102;-72
2021/07/24 08:18:14;;;;;;;;;;;;;;;26.01;53.34;99422.05;1774869;80;20089;-70
2021/07/24 08:20:42;;;;;;;;;;;;;;;25.30;56.65;99424.73;1775093;80;20101;-70
2021/07/24 08:23:10;;;;;;;;;;;;;;;25.16;56.49;99429.84;1774795;80;20770;-71
2021/07/24 08:25:37;;;;;;;;;;;;;;;25.25;56.37;99423.64;1775146;80;20120;-71
2021/07/24 08:28:09;;;;;;;;;;;;;;;25.82;55.59;99427.73;1774411;80;21715;-69
2021/07/24 08:30:35;;;;;;;;;;;;;;;26.36;53.68;99433.56;1774895;80;20084;-70
2021/07/24 08:33:08;;;;;;;;;;;;;;;26.46;51.14;99428.28;1774784;80;20117;-71
2021/07/24 08:35:35;;;;;;;;;;;;;;;25.80;53.48;99431.41;1774302;80;20096;-70
2021/07/24 08:38:03;;;;;;;;;;;;;;;25.35;55.69;99426.42;1744933;81;20100;-71
2021/07/24 08:40:30;;;;;;;;;;;;;;;25.59;55.98;99436.41;1774696;80;21004;-71
2021/07/24 08:43:14;;;;;;;;;;;;;;;26.09;51.85;99436.98;1774083;80;20451;-70
2021/07/24 08:45:58;;;;;;;;;;;;;;;26.56;50.44;99434.40;1774716;80;20483;-72
2021/07/24 08:48:24;;;;;;;;;;;;;;;26.65;48.11;99426.69;1774266;80;20704;-71
2021/07/24 08:50:57;;;;;;;;;;;;;;;26.72;50.95;99426.81;1745289;80;20168;-71
2021/07/24 08:53:25;;;;;;;;;;;;;;;27.15;48.56;99435.25;1771620;80;21120;-70
2021/07/24 08:56:23;;;;;;;;;;;;;;;;;;;;;
2021/07/24 08:58:44;;;;;;;;;;;;;;;27.12;48.36;99431.05;1768334;80;20084;-70
2021/07/24 09:01:20;;;;;;;;;;;;;;;26.78;49.91;99432.25;1774491;80;20559;-70
2021/07/24 09:03:46;;;;;;;;;;;;;;;26.33;50.13;99417.78;1774846;80;20163;-71
2021/07/24 09:06:22;;;;;;;;;;;;;;;26.17;52.18;99423.38;1774918;80;20740;-71
2021/07/24 09:08:52;;;;;;;;;;;;;;;26.68;50.53;99424.02;1774664;80;20180;-70
2021/07/24 09:11:24;;;;;;;;;;;;;;;27.18;48.56;99424.67;1774272;80;20338;-70
2021/07/24 09:13:50;;;;;;;;;;;;;;;26.84;47.78;99435.49;1774733;80;20097;-72
2021/07/24 09:16:22;;;;;;;;;;;;;;;26.61;47.97;99425.25;1774297;80;20430;-69
2021/07/24 09:18:52;;;;;;;;;;;;;;;27.06;46.83;99426.44;1745176;81;21383;-71
2021/07/24 09:25:23;;;;;;;;;;;;;;;27.92;47.02;99426.41;1727916;81;20489;-75
2021/07/24 09:28:05;;;;;;;;;;;;;;;28.20;44.17;99418.31;1766194;80;20406;-72
2021/07/24 09:30:35;;;;;;;;;;;;;;;28.38;43.66;99430.34;1768589;80;20444;-70
2021/07/24 09:33:16;;;;;;;;;;;;;;;28.34;44.05;99426.73;1732530;81;21867;-70
2021/07/24 09:36:16;;;;;;;;;;;;;;;28.04;43.45;99421.84;1766546;80;20464;-76
2021/07/24 09:38:46;;;;;;;;;;;;;;;27.42;45.16;99414.66;1742793;81;20424;-72
2021/07/24 09:41:17;;;;;;;;;;;;;;;27.32;47.10;99416.66;1764561;80;20204;-74
2021/07/24 09:43:44;;;;;;;;;;;;;;;27.23;47.01;99418.88;1774742;80;20080;-72
2021/07/24 09:46:21;;;;;;;;;;;;;;;27.56;46.71;99421.77;1774840;80;21874;-72
2021/07/24 09:48:51;;;;;;;;;;;;;;;27.52;44.80;99416.77;1774785;80;20132;-72
2021/07/24 09:51:34;;;;;;;;;;;;;;;27.19;46.76;99418.80;1775730;80;20156;-72
2021/07/24 09:54:02;;;;;;;;;;;;;;;26.75;48.44;99419.20;1774779;80;20085;-73
2021/07/24 09:56:40;;;;;;;;;;;;;;;26.50;48.37;99419.50;1775741;80;20101;-71
2021/07/24 09:59:28;;;;;;;;;;;;;;;26.13;49.32;99420.53;1775145;79;20179;-72
2021/07/24 10:01:57;;;;;;;;;;;;;;;26.00;50.97;99417.72;1773560;80;20093;-72
2021/07/24 10:04:32;;;;;;;;;;;;;;;25.85;52.89;99418.78;1774887;80;20096;-70
2021/07/24 10:07:08;;;;;;;;;;;;;;;25.95;51.37;99417.42;1774070;80;20550;-69
2021/07/24 10:09:37;;;;;;;;;;;;;;;25.91;49.74;99414.37;1774646;80;20140;-71
2021/07/24 10:12:09;;;;;;;;;;;;;;;25.74;52.03;99417.70;1774327;80;21983;-72
2021/07/24 10:14:44;;;;;;;;;;;;;;;25.65;52.68;99423.42;1773588;80;20108;-71
2021/07/24 10:17:09;;;;;;;;;;;;;;;25.59;53.44;99416.59;1773751;80;20132;-73
2021/07/24 10:19:36;;;;;;;;;;;;;;;25.47;53.20;99413.95;1774337;80;20080;-73
2021/07/24 10:22:06;;;;;;;;;;;;;;;25.29;53.86;99412.75;1774436;80;20124;-68
2021/07/24 10:24:33;;;;;;;;;;;;;;;25.42;53.08;99421.89;1774361;80;21155;-72
2021/07/24 10:27:08;;;;;;;;;;;;;;;26.10;51.61;99422.64;1774469;80;20101;-70
2021/07/24 10:29:36;;;;;;;;;;;;;;;26.36;52.98;99418.42;1746565;81;20199;-70
2021/07/24 10:32:07;;;;;;;;;;;;;;;26.49;51.69;99419.88;1775175;80;20485;-72
2021/07/24 10:34:33;;;;;;;;;;;;;;;26.89;52.58;99413.95;1774124;80;20124;-72
2021/07/24 10:37:00;;;;;;;;;;;;;;;27.46;49.24;99417.45;1774939;80;21089;-73
2021/07/24 10:39:26;;;;;;;;;;;;;;;27.59;49.68;99406.44;1774024;80;20628;-74
2021/07/24 10:42:09;;;;;;;;;;;;;;;27.29;49.46;99398.91;1774259;80;20243;-71
2021/07/24 10:44:39;;;;;;;;;;;;;;;27.28;51.71;99410.30;1774447;80;20171;-72
2021/07/24 10:47:08;;;;;;;;;;;;;;;27.45;50.82;99407.02;1775638;80;20117;-73
2021/07/24 10:49:39;;;;;;;;;;;;;;;28.22;48.50;99413.19;1775452;80;21103;-74
2021/07/24 10:52:10;;;;;;;;;;;;;;;28.45;45.05;99410.91;1775122;80;20096;-72
2021/07/24 10:55:11;;;;;;;;;;;;;;;28.43;45.43;99409.30;1775242;80;20208;-74
2021/07/24 10:57:53;;;;;;;;;;;;;;;28.62;45.71;99413.09;1774288;80;20124;-73
2021/07/24 11:00:31;;;;;;;;;;;;;;;28.84;43.63;99412.12;1771538;80;20655;-73
2021/07/24 11:02:58;;;;;;;;;;;;;;;28.77;45.47;99407.91;1775486;80;21093;-70
2021/07/24 11:05:35;;;;;;;;;;;;;;;28.54;44.09;99414.98;1774835;80;20101;-73
2021/07/24 11:08:01;;;;;;;;;;;;;;;28.58;44.75;99419.15;1775086;80;20435;-71
2021/07/24 11:10:27;;;;;;;;;;;;;;;28.47;44.67;99418.23;1775385;80;20085;-70
2021/07/24 11:12:55;;;;;;;;;;;;;;;28.00;47.00;99410.19;1775520;80;20447;-73
2021/07/24 11:15:46;;;;;;;;;;;;;;;28.00;47.54;99417.64;1775492;80;21111;-69
2021/07/24 11:18:25;;;;;;;;;;;;;;;28.53;45.15;99416.73;1769019;80;20440;-71
2021/07/24 11:20:53;;;;;;;;;;;;;;;28.12;44.97;99418.00;1761179;80;20239;-71
2021/07/24 11:23:20;;;;;;;;;;;;;;;27.64;45.18;99417.14;1764459;80;20947;-72
2021/07/24 11:25:47;;;;;;;;;;;;;;;27.44;46.89;99417.84;1762697;80;20207;-69
2021/07/24 11:28:22;;;;;;;;;;;;;;;27.24;46.10;99421.83;1775084;80;21787;-71
2021/07/24 11:30:57;;;;;;;;;;;;;;;26.85;44.11;99424.13;1775040;80;20447;-71
2021/07/24 11:33:24;;;;;;;;;;;;;;;26.50;47.56;99418.70;1775671;80;20100;-72
2021/07/24 11:35:51;;;;;;;;;;;;;;;26.55;48.25;99428.08;1774700;80;20475;-72
2021/07/24 11:38:24;;;;;;;;;;;;;;;26.37;47.07;99425.55;1775460;80;20143;-72
2021/07/24 11:41:03;;;;;;;;;;;;;;;26.45;48.15;99420.38;1775441;80;21111;-70
2021/07/24 11:43:31;;;;;;;;;;;;;;;26.37;47.92;99424.95;1775377;80;20085;-72
2021/07/24 11:46:03;;;;;;;;;;;;;;;26.64;49.83;99426.48;1773356;80;20128;-73
2021/07/24 11:48:41;;;;;;;;;;;;;;;26.72;47.87;99430.36;1775234;80;20101;-72
2021/07/24 11:51:09;;;;;;;;;;;;;;;26.73;49.08;99439.44;1773820;80;20084;-72
2021/07/24 11:53:44;;;;;;;;;;;;;;;26.78;48.37;99436.38;1774112;80;21140;-73
2021/07/24 11:56:56;;;;;;;;;;;;;;;26.55;47.90;99436.33;1735073;81;20108;-70
2021/07/24 11:59:04;;;;;;;;;;;;;;;26.35;48.48;99430.61;1730204;81;20135;-71
2021/07/24 12:02:22;;;;;;;;;;;;;;;;;;;;;
2021/07/24 12:07:38;;;;;;;;;;;;;;;26.28;49.66;99430.66;1576823;88;21480;-71
2021/07/24 12:10:23;;;;;;;;;;;;;;;26.41;49.44;99438.22;1584326;88;20561;-72
2021/07/24 12:13:11;;;;;;;;;;;;;;;26.65;48.14;99434.94;1609749;87;20132;-71
2021/07/24 12:15:55;;;;;;;;;;;;;;;26.66;48.14;99431.84;1611082;87;20124;-72
2021/07/24 12:18:52;;;;;;;;;;;;;;;;;;;;;
2021/07/24 12:25:50;;;;;;;;;;;;;;;;;;;;;
2021/07/24 12:28:40;;;;;;;;;;;;;;;26.85;47.89;99426.06;1589580;89;20110;-71
2021/07/24 12:31:33;;;;;;;;;;;;;;;27.08;48.12;99429.63;1521463;92;20454;-71
2021/07/24 12:34:03;;;;;;;;;;;;;;;27.29;47.64;99426.47;1532471;92;20114;-71
2021/07/24 12:36:30;;;;;;;;;;;;;;;27.24;47.07;99421.83;1535615;92;21162;-72
2021/07/24 12:39:00;;;;;;;;;;;;;;;27.10;46.48;99421.80;1534777;92;20163;-71
2021/07/24 12:41:35;;;;;;;;;;;;;;;27.12;46.91;99424.16;1522607;93;20628;-72
2021/07/24 12:44:04;;;;;;;;;;;;;;;27.28;47.69;99419.94;1498424;94;20268;-72
2021/07/24 12:46:37;;;;;;;;;;;;;;;27.66;45.48;99423.64;1499014;95;20160;-73
2021/07/24 12:49:04;;;;;;;;;;;;;;;27.91;45.52;99422.67;1504804;92;21562;-71
2021/07/24 12:51:41;;;;;;;;;;;;;;;27.84;45.72;99420.59;1537897;91;20163;-71
2021/07/24 12:54:12;;;;;;;;;;;;;;;28.24;44.05;99418.34;1551168;90;20114;-72
2021/07/24 12:56:43;;;;;;;;;;;;;;;27.94;43.20;99426.84;1562801;90;20484;-71
2021/07/24 12:59:09;;;;;;;;;;;;;;;28.22;43.75;99421.46;1635581;85;20212;-70
2021/07/24 13:01:49;;;;;;;;;;;;;;;28.31;42.46;99419.80;1658966;86;20728;-71
2021/07/24 13:04:16;;;;;;;;;;;;;;;28.23;41.44;99417.55;1660851;86;20090;-70
2021/07/24 13:06:44;;;;;;;;;;;;;;;28.10;42.19;99420.33;1697674;80;20100;-72
2021/07/24 13:09:16;;;;;;;;;;;;;;;28.28;41.53;99421.95;1766927;80;20145;-71
2021/07/24 13:11:43;;;;;;;;;;;;;;;28.33;40.89;99416.88;1767527;80;20093;-69
2021/07/24 13:14:10;;;;;;;;;;;;;;;27.97;40.28;99410.91;1767359;81;21122;-71
2021/07/24 13:16:38;;;;;;;;;;;;;;;28.12;40.84;99428.44;1767589;81;20236;-69